createdAt,value
2024-01-24T00:00:23.175Z,76.50
2024-01-24T00:02:50.400Z,76.53
2024-01-24T00:05:17.608Z,76.88
2024-01-24T00:07:44.619Z,76.82
2024-01-24T00:10:12.351Z,77.08
2024-01-24T00:12:39.136Z,77.15
2024-01-24T00:15:06.388Z,76.84
2024-01-24T00:17:33.095Z,76.48
2024-01-24T00:19:59.766Z,77.11
2024-01-24T00:22:27.295Z,76.61
2024-01-24T00:24:54.002Z,75.91
2024-01-24T00:27:20.704Z,76.28
2024-01-24T00:29:47.616Z,76.68
2024-01-24T00:32:14.279Z,76.24
2024-01-24T00:34:41.193Z,75.92
2024-01-24T00:37:08.084Z,76.63
2024-01-24T00:39:34.910Z,76.21
2024-01-24T00:42:01.816Z,76.09
2024-01-24T00:44:28.876Z,75.76
2024-01-24T00:46:55.478Z,76.60
2024-01-24T00:49:23.821Z,75.42
2024-01-24T00:51:50.667Z,75.77
2024-01-24T00:54:17.416Z,75.42
2024-01-24T00:56:44.166Z,75.04
2024-01-24T00:59:10.828Z,74.80
2024-01-24T01:01:38.041Z,75.28
2024-01-24T01:04:05.437Z,75.25
2024-01-24T01:06:32.394Z,74.58
2024-01-24T01:09:01.302Z,74.58
2024-01-24T01:11:27.974Z,75.40
2024-01-24T01:13:54.628Z,74.61
2024-01-24T01:16:21.251Z,73.94
2024-01-24T01:18:47.944Z,74.00
2024-01-24T01:21:14.666Z,73.76
2024-01-24T01:23:41.502Z,74.12
2024-01-24T01:26:08.148Z,73.27
2024-01-24T01:28:35.577Z,73.91
2024-01-24T01:31:02.278Z,74.31
2024-01-24T01:33:29.062Z,73.53
2024-01-24T01:36:08.390Z,73.53
2024-01-24T01:38:41.510Z,73.60
2024-01-24T01:41:08.120Z,73.55
2024-01-24T01:43:34.770Z,74.08
2024-01-24T01:46:11.601Z,72.79
2024-01-24T01:48:39.404Z,72.68
2024-01-24T01:51:07.447Z,73.46
2024-01-24T01:53:39.541Z,73.18
2024-01-24T01:56:13.398Z,72.68
2024-01-24T01:58:41.570Z,73.05
2024-01-24T02:01:08.858Z,73.25
2024-01-24T02:03:42.725Z,71.61
2024-01-24T02:06:09.588Z,71.19
2024-01-24T02:08:37.327Z,70.20
2024-01-24T02:11:05.284Z,70.84
2024-01-24T02:13:33.051Z,69.64
2024-01-24T02:16:00.342Z,69.29
2024-01-24T02:18:27.134Z,67.96
2024-01-24T02:20:55.034Z,66.21
2024-01-24T02:23:26.766Z,66.98
2024-01-24T02:25:54.206Z,66.57
2024-01-24T02:28:21.224Z,66.27
2024-01-24T02:30:47.928Z,66.68
2024-01-24T02:33:14.709Z,66.11
2024-01-24T02:35:41.412Z,66.43
2024-01-24T02:38:08.074Z,66.79
2024-01-24T02:40:34.827Z,67.55
2024-01-24T02:43:01.545Z,66.70
2024-01-24T02:45:28.276Z,67.03
2024-01-24T02:47:54.963Z,67.43
2024-01-24T02:50:21.693Z,67.61
2024-01-24T02:52:48.561Z,67.46
2024-01-24T02:55:18.398Z,67.83
2024-01-24T02:57:45.435Z,67.68
2024-01-24T03:00:16.958Z,68.17
2024-01-24T03:02:44.217Z,68.08
2024-01-24T03:05:11.144Z,68.37
2024-01-24T03:07:38.997Z,68.74
2024-01-24T03:10:06.423Z,69.19
2024-01-24T03:12:33.937Z,69.47
2024-01-24T03:15:01.496Z,69.66
2024-01-24T03:17:28.187Z,70.73
2024-01-24T03:19:54.970Z,70.80
2024-01-24T03:22:21.953Z,70.00
2024-01-24T03:24:48.630Z,70.88
2024-01-24T03:27:15.473Z,69.91
2024-01-24T03:29:43.652Z,69.89
2024-01-24T03:32:10.913Z,70.42
2024-01-24T03:34:38.076Z,69.60
2024-01-24T03:37:05.098Z,70.04
2024-01-24T03:39:31.734Z,69.65
2024-01-24T03:41:58.458Z,69.92
2024-01-24T03:44:25.095Z,69.03
2024-01-24T03:46:51.805Z,68.14
2024-01-24T03:49:21.826Z,68.64
2024-01-24T03:51:49.143Z,67.29
2024-01-24T03:54:16.455Z,67.07
2024-01-24T03:56:43.165Z,66.80
2024-01-24T03:59:09.797Z,66.36
2024-01-24T04:01:36.692Z,66.25
2024-01-24T04:04:03.896Z,65.49
2024-01-24T04:06:31.564Z,66.37
2024-01-24T04:08:58.223Z,66.41
2024-01-24T04:11:25.238Z,66.68
2024-01-24T04:13:57.616Z,65.35
2024-01-24T04:16:24.525Z,65.81
2024-01-24T04:18:53.916Z,66.18
2024-01-24T04:21:20.743Z,66.29
2024-01-24T04:23:47.418Z,66.74
2024-01-24T04:26:14.108Z,66.45
2024-01-24T04:28:40.801Z,66.59
2024-01-24T04:31:07.473Z,66.67
2024-01-24T04:33:34.227Z,65.75
2024-01-24T04:36:01.345Z,65.70
2024-01-24T04:38:28.133Z,65.50
2024-01-24T04:40:54.812Z,65.92
2024-01-24T04:43:21.444Z,65.31
2024-01-24T04:45:48.158Z,65.49
2024-01-24T04:48:14.898Z,64.84
2024-01-24T04:50:41.930Z,64.93
2024-01-24T04:53:09.074Z,64.30
2024-01-24T04:55:35.786Z,63.32
2024-01-24T04:58:03.544Z,63.27
2024-01-24T05:00:30.414Z,63.30
2024-01-24T05:02:57.170Z,62.58
2024-01-24T05:05:23.846Z,63.21
2024-01-24T05:07:50.463Z,62.07
2024-01-24T05:10:17.366Z,61.99
2024-01-24T05:12:44.086Z,61.47
2024-01-24T05:15:12.265Z,62.14
2024-01-24T05:17:40.522Z,61.83
2024-01-24T05:20:18.488Z,62.19
2024-01-24T05:22:45.299Z,61.77
2024-01-24T05:25:11.997Z,61.73
2024-01-24T05:27:38.700Z,61.86
2024-01-24T05:30:15.837Z,62.35
2024-01-24T05:32:47.328Z,61.35
2024-01-24T05:35:13.953Z,61.28
2024-01-24T05:37:40.803Z,61.88
2024-01-24T05:40:09.150Z,62.27
2024-01-24T05:42:35.934Z,61.73
2024-01-24T05:45:03.042Z,62.07
2024-01-24T05:47:29.816Z,61.76
2024-01-24T05:49:56.577Z,62.20
2024-01-24T05:52:23.212Z,61.75
2024-01-24T05:54:49.871Z,61.67
2024-01-24T05:57:16.643Z,61.78
2024-01-24T05:59:43.359Z,61.35
2024-01-24T06:02:11.243Z,61.65
2024-01-24T06:04:38.040Z,62.45
2024-01-24T06:07:05.820Z,62.30
2024-01-24T06:09:32.670Z,62.41
2024-01-24T06:12:00.345Z,61.53
2024-01-24T06:14:26.965Z,61.71
2024-01-24T06:16:53.602Z,61.59
2024-01-24T06:19:20.366Z,62.47
2024-01-24T06:21:47.115Z,61.79
2024-01-24T06:24:13.907Z,62.04
2024-01-24T06:26:40.683Z,61.71
2024-01-24T06:29:08.129Z,62.11
2024-01-24T06:31:34.814Z,61.94
2024-01-24T06:34:01.832Z,62.05
2024-01-24T06:36:30.098Z,62.78
2024-01-24T06:38:56.771Z,62.13
2024-01-24T06:41:23.446Z,62.25
2024-01-24T06:43:50.135Z,61.92
2024-01-24T06:46:18.733Z,62.02
2024-01-24T06:48:45.586Z,61.86
2024-01-24T06:51:14.322Z,62.22
2024-01-24T06:53:41.164Z,62.22
2024-01-24T06:56:09.661Z,62.36
2024-01-24T06:58:38.744Z,62.56
2024-01-24T07:01:05.707Z,62.69
2024-01-24T07:03:32.517Z,62.93
2024-01-24T07:05:59.597Z,62.99
2024-01-24T07:08:26.247Z,63.02
2024-01-24T07:10:52.911Z,62.55
2024-01-24T07:13:20.371Z,63.41
2024-01-24T07:15:47.063Z,63.49
2024-01-24T07:18:13.822Z,62.93
2024-01-24T07:20:40.546Z,62.89
2024-01-24T07:23:08.295Z,63.81
2024-01-24T07:25:34.939Z,63.94
2024-01-24T07:28:01.723Z,63.39
2024-01-24T07:30:29.135Z,63.71
2024-01-24T07:32:55.990Z,64.15
2024-01-24T07:35:22.779Z,63.34
2024-01-24T07:37:49.388Z,63.54
2024-01-24T07:40:16.517Z,63.37
2024-01-24T07:42:43.900Z,63.63
2024-01-24T07:45:10.792Z,63.74
2024-01-24T07:47:37.859Z,63.74
2024-01-24T07:50:06.240Z,64.21
2024-01-24T07:52:40.622Z,63.69
2024-01-24T07:55:09.786Z,63.95
2024-01-24T07:57:37.252Z,63.59
2024-01-24T08:00:07.437Z,63.48
2024-01-24T08:02:34.885Z,63.05
2024-01-24T08:05:01.825Z,63.87
2024-01-24T08:07:29.256Z,63.99
2024-01-24T08:09:56.058Z,63.22
2024-01-24T08:12:24.703Z,63.24
2024-01-24T08:14:51.448Z,63.79
2024-01-24T08:17:18.255Z,63.92
2024-01-24T08:19:45.961Z,63.20
2024-01-24T08:22:12.768Z,63.87
2024-01-24T08:24:39.412Z,64.12
2024-01-24T08:27:06.116Z,64.03
2024-01-24T08:29:37.376Z,63.47
2024-01-24T08:32:06.547Z,63.75
2024-01-24T08:34:36.512Z,63.26
2024-01-24T08:37:03.630Z,64.11
2024-01-24T08:39:30.324Z,63.55
2024-01-24T08:41:57.645Z,64.02
2024-01-24T08:44:24.310Z,64.21
2024-01-24T08:46:52.109Z,63.86
2024-01-24T08:49:19.200Z,64.63
2024-01-24T08:51:46.146Z,63.91
2024-01-24T08:54:12.931Z,63.76
2024-01-24T08:56:40.276Z,64.08
2024-01-24T08:59:07.303Z,64.25
2024-01-24T09:01:34.102Z,64.23
2024-01-24T09:04:01.063Z,64.15
2024-01-24T09:06:27.791Z,64.18
2024-01-24T09:08:54.814Z,64.46
2024-01-24T09:11:24.342Z,64.42
2024-01-24T09:13:52.838Z,64.24
2024-01-24T09:16:21.171Z,63.89
2024-01-24T09:18:48.123Z,64.29
2024-01-24T09:21:14.880Z,64.24
2024-01-24T09:23:41.517Z,63.75
2024-01-24T09:26:08.483Z,63.54
2024-01-24T09:28:35.342Z,64.13
2024-01-24T09:31:02.147Z,63.20
2024-01-24T09:33:28.989Z,63.30
2024-01-24T09:35:56.413Z,63.17
2024-01-24T09:38:23.234Z,63.08
2024-01-24T09:40:50.612Z,63.17
2024-01-24T09:43:17.940Z,62.95
2024-01-24T09:45:45.709Z,62.61
2024-01-24T09:48:13.034Z,62.03
2024-01-24T09:50:41.469Z,61.51
2024-01-24T09:53:10.527Z,61.95
2024-01-24T09:55:38.046Z,61.44
2024-01-24T09:58:05.858Z,61.54
2024-01-24T10:00:33.544Z,61.42
2024-01-24T10:03:00.467Z,59.80
2024-01-24T10:05:27.781Z,60.62
2024-01-24T10:07:55.937Z,60.55
2024-01-24T10:10:22.947Z,60.15
2024-01-24T10:12:49.793Z,60.39
2024-01-24T10:15:17.065Z,59.16
2024-01-24T10:17:44.750Z,59.67
2024-01-24T10:20:15.705Z,59.46
2024-01-24T10:22:46.837Z,59.49
2024-01-24T10:25:13.859Z,57.73
2024-01-24T10:27:41.412Z,58.90
2024-01-24T10:30:11.409Z,59.23
2024-01-24T10:32:38.537Z,58.72
2024-01-24T10:35:06.395Z,58.00
2024-01-24T10:37:34.007Z,57.25
2024-01-24T10:40:12.889Z,56.93
2024-01-24T10:42:42.829Z,56.81
2024-01-24T10:45:10.612Z,56.73
2024-01-24T10:47:37.664Z,56.22
2024-01-24T10:50:06.396Z,55.95
2024-01-24T10:52:34.466Z,56.06
2024-01-24T10:55:07.608Z,55.69
2024-01-24T10:57:35.940Z,56.01
2024-01-24T11:00:12.013Z,55.58
2024-01-24T11:02:42.287Z,55.56
2024-01-24T11:05:14.173Z,56.64
2024-01-24T11:07:55.092Z,56.10
2024-01-24T11:10:43.839Z,55.38
2024-01-24T11:13:12.643Z,56.10
2024-01-24T11:15:41.563Z,56.08
2024-01-24T11:18:24.955Z,54.92
2024-01-24T11:21:01.892Z,55.58
2024-01-24T11:23:35.891Z,54.61
2024-01-24T11:26:03.266Z,55.19
2024-01-24T11:28:29.958Z,55.27
2024-01-24T11:30:57.253Z,54.83
2024-01-24T11:33:25.019Z,55.04
2024-01-24T11:35:52.752Z,55.36
2024-01-24T11:38:30.060Z,55.97
2024-01-24T11:41:03.847Z,55.78
2024-01-24T11:43:36.495Z,55.68
2024-01-24T11:46:06.996Z,55.88
2024-01-24T11:48:36.766Z,55.91
2024-01-24T11:51:09.283Z,56.02
2024-01-24T11:53:36.390Z,55.93
2024-01-24T11:56:15.857Z,56.25
2024-01-24T11:58:42.761Z,56.43
2024-01-24T12:01:14.488Z,56.30
2024-01-24T12:03:49.846Z,56.59
2024-01-24T12:06:18.247Z,56.46
2024-01-24T12:08:50.375Z,55.37
2024-01-24T12:11:18.437Z,55.54
2024-01-24T12:13:45.966Z,55.54
2024-01-24T12:16:12.819Z,56.53
2024-01-24T12:18:39.756Z,55.55
2024-01-24T12:21:09.692Z,55.55
2024-01-24T12:23:36.654Z,55.47
2024-01-24T12:26:04.390Z,55.35
2024-01-24T12:28:31.606Z,55.95
2024-01-24T12:30:59.042Z,56.09
2024-01-24T12:33:26.289Z,56.27
2024-01-24T12:35:53.117Z,56.33
2024-01-24T12:38:19.891Z,55.73
2024-01-24T12:40:55.546Z,55.67
2024-01-24T12:43:24.132Z,55.77
2024-01-24T12:45:52.619Z,55.56
2024-01-24T12:48:22.919Z,55.45
2024-01-24T12:50:51.130Z,55.75
2024-01-24T12:53:18.352Z,56.03
2024-01-24T12:55:45.056Z,56.49
2024-01-24T12:58:12.009Z,55.89
2024-01-24T13:00:39.090Z,55.79
2024-01-24T13:03:06.622Z,56.29
2024-01-24T13:05:42.200Z,55.77
2024-01-24T13:08:14.047Z,55.91
2024-01-24T13:10:45.202Z,55.68
2024-01-24T13:13:12.734Z,54.99
2024-01-24T13:15:40.767Z,55.62
2024-01-24T13:18:09.401Z,55.03
2024-01-24T13:20:36.662Z,55.47
2024-01-24T13:23:03.368Z,54.80
2024-01-24T13:25:30.396Z,55.03
2024-01-24T13:27:57.949Z,55.79
2024-01-24T13:30:24.979Z,55.44
2024-01-24T13:32:52.511Z,55.15
2024-01-24T13:35:20.176Z,54.98
2024-01-24T13:37:48.367Z,54.94
2024-01-24T13:40:15.537Z,55.00
2024-01-24T13:42:43.537Z,55.71
2024-01-24T13:45:11.325Z,55.77
2024-01-24T13:47:41.868Z,54.58
2024-01-24T13:50:10.744Z,55.87
2024-01-24T13:52:37.794Z,55.79
2024-01-24T13:55:07.702Z,55.73
2024-01-24T13:57:35.752Z,55.68
2024-01-24T14:00:04.751Z,56.12
2024-01-24T14:02:31.736Z,55.01
2024-01-24T14:04:58.831Z,55.11
2024-01-24T14:07:25.661Z,55.74
2024-01-24T14:09:53.381Z,55.74
2024-01-24T14:12:20.031Z,55.52
2024-01-24T14:14:47.034Z,55.20
2024-01-24T14:17:13.773Z,55.73
2024-01-24T14:19:40.486Z,55.54
2024-01-24T14:22:07.884Z,56.08
2024-01-24T14:24:34.718Z,55.44
2024-01-24T14:27:01.438Z,55.27
2024-01-24T14:29:28.076Z,55.50
2024-01-24T14:31:54.751Z,56.35
2024-01-24T14:34:21.569Z,56.29
2024-01-24T14:36:52.420Z,56.06
2024-01-24T14:39:22.963Z,56.85
2024-01-24T14:41:49.880Z,56.77
2024-01-24T14:44:17.372Z,56.95
2024-01-24T14:46:44.102Z,56.78
2024-01-24T14:49:11.388Z,56.91
2024-01-24T14:51:38.182Z,56.82
2024-01-24T14:54:05.092Z,57.00
2024-01-24T14:56:31.739Z,56.42
2024-01-24T14:58:58.466Z,57.37
2024-01-24T15:01:25.702Z,57.24
2024-01-24T15:03:53.294Z,56.90
2024-01-24T15:06:20.354Z,57.40
2024-01-24T15:08:47.872Z,57.40
2024-01-24T15:11:14.892Z,56.90
2024-01-24T15:13:41.664Z,57.40
2024-01-24T15:16:08.506Z,56.95
2024-01-24T15:18:35.608Z,57.38
2024-01-24T15:21:08.909Z,57.37
2024-01-24T15:23:39.681Z,56.66
2024-01-24T15:26:06.830Z,57.01
2024-01-24T15:28:35.725Z,56.58
2024-01-24T15:31:03.728Z,57.46
2024-01-24T15:33:33.242Z,57.30
2024-01-24T15:36:00.270Z,57.39
2024-01-24T15:38:26.979Z,56.87
2024-01-24T15:40:54.447Z,57.11
2024-01-24T15:43:21.529Z,56.41
2024-01-24T15:45:48.462Z,56.92
2024-01-24T15:48:16.272Z,56.36
2024-01-24T15:50:44.144Z,57.09
2024-01-24T15:53:11.881Z,56.13
2024-01-24T15:55:38.770Z,56.44
2024-01-24T15:58:05.540Z,56.47
2024-01-24T16:00:32.585Z,56.28
2024-01-24T16:03:00.945Z,56.75
2024-01-24T16:05:35.398Z,56.62
2024-01-24T16:08:03.875Z,56.49
2024-01-24T16:10:30.849Z,56.51
2024-01-24T16:12:57.565Z,56.82
2024-01-24T16:15:24.286Z,57.44
2024-01-24T16:17:51.200Z,57.63
2024-01-24T16:20:18.271Z,57.35
2024-01-24T16:22:51.085Z,57.13
2024-01-24T16:25:25.884Z,57.57
2024-01-24T16:27:55.048Z,57.58
2024-01-24T16:30:26.389Z,57.44
2024-01-24T16:32:57.102Z,57.11
2024-01-24T16:35:24.376Z,57.85
2024-01-24T16:37:51.408Z,57.36
2024-01-24T16:40:18.236Z,57.71
2024-01-24T16:42:44.908Z,58.02
2024-01-24T16:45:12.517Z,58.23
2024-01-24T16:47:40.178Z,58.16
2024-01-24T16:50:07.801Z,58.13
2024-01-24T16:52:34.656Z,57.99
2024-01-24T16:55:01.796Z,58.55
2024-01-24T16:57:28.782Z,58.30
2024-01-24T16:59:58.245Z,58.75
2024-01-24T17:02:34.208Z,58.69
2024-01-24T17:05:05.572Z,58.29
2024-01-24T17:07:32.387Z,59.03
2024-01-24T17:10:01.248Z,58.50
2024-01-24T17:12:29.051Z,58.69
2024-01-24T17:14:56.024Z,59.47
2024-01-24T17:17:22.807Z,59.36
2024-01-24T17:19:49.537Z,59.31
2024-01-24T17:22:16.619Z,59.49
2024-01-24T17:24:43.342Z,59.44
2024-01-24T17:27:12.697Z,59.26
2024-01-24T17:29:40.327Z,59.57
2024-01-24T17:32:07.265Z,59.31
2024-01-24T17:34:34.337Z,59.34
2024-01-24T17:37:01.085Z,59.41
2024-01-24T17:39:28.290Z,59.37
2024-01-24T17:41:55.267Z,59.95
2024-01-24T17:44:22.297Z,59.25
2024-01-24T17:46:49.005Z,59.91
2024-01-24T17:49:16.734Z,59.87
2024-01-24T17:51:44.390Z,59.93
2024-01-24T17:54:11.246Z,59.88
2024-01-24T17:56:38.394Z,59.92
2024-01-24T17:59:05.111Z,59.45
2024-01-24T18:01:32.598Z,59.76
2024-01-24T18:03:59.588Z,59.82
2024-01-24T18:06:26.976Z,59.83
2024-01-24T18:08:54.345Z,59.99
2024-01-24T18:11:20.996Z,59.33
2024-01-24T18:13:48.261Z,59.86
2024-01-24T18:16:15.486Z,59.56
2024-01-24T18:18:42.390Z,59.75
2024-01-24T18:21:11.049Z,59.63
2024-01-24T18:23:38.268Z,60.00
2024-01-24T18:26:05.026Z,59.44
2024-01-24T18:28:31.716Z,59.46
2024-01-24T18:30:58.443Z,59.29
2024-01-24T18:33:25.576Z,59.76
2024-01-24T18:35:52.650Z,59.89
2024-01-24T18:38:19.512Z,60.09
2024-01-24T18:40:46.211Z,59.82
2024-01-24T18:43:13.140Z,59.58
2024-01-24T18:45:39.958Z,59.81
2024-01-24T18:48:07.402Z,59.76
2024-01-24T18:50:34.241Z,59.83
2024-01-24T18:53:01.040Z,59.95
2024-01-24T18:55:28.119Z,60.15
2024-01-24T18:57:55.309Z,59.88
2024-01-24T19:00:23.480Z,59.52
2024-01-24T19:02:50.872Z,59.72
2024-01-24T19:05:23.798Z,60.33
2024-01-24T19:07:57.781Z,60.30
2024-01-24T19:10:24.735Z,60.26
2024-01-24T19:12:51.673Z,59.89
2024-01-24T19:15:20.836Z,59.95
2024-01-24T19:17:49.090Z,60.46
2024-01-24T19:20:18.764Z,60.46
2024-01-24T19:22:45.778Z,60.45
2024-01-24T19:25:12.612Z,60.46
2024-01-24T19:27:39.393Z,61.12
2024-01-24T19:30:07.420Z,60.61
2024-01-24T19:32:34.160Z,61.21
2024-01-24T19:35:03.978Z,60.93
2024-01-24T19:37:31.655Z,61.22
2024-01-24T19:39:58.343Z,61.48
2024-01-24T19:42:25.210Z,61.70
2024-01-24T19:44:52.543Z,61.50
2024-01-24T19:47:29.009Z,61.36
2024-01-24T19:49:56.948Z,61.48
2024-01-24T19:52:24.093Z,61.63
2024-01-24T19:54:51.083Z,61.74
2024-01-24T19:57:18.229Z,61.97
2024-01-24T19:59:44.924Z,61.94
2024-01-24T20:02:13.397Z,62.51
2024-01-24T20:04:40.081Z,62.80
2024-01-24T20:07:07.472Z,62.92
2024-01-24T20:09:34.302Z,63.13
2024-01-24T20:12:00.955Z,62.79
2024-01-24T20:14:27.653Z,63.44
2024-01-24T20:16:54.780Z,63.50
2024-01-24T20:19:21.617Z,63.31
2024-01-24T20:21:48.389Z,63.16
2024-01-24T20:24:15.761Z,63.48
2024-01-24T20:26:42.418Z,62.91
2024-01-24T20:29:09.037Z,63.45
2024-01-24T20:31:35.775Z,63.32
2024-01-24T20:34:03.223Z,63.85
2024-01-24T20:36:30.210Z,63.99
2024-01-24T20:38:57.586Z,64.07
2024-01-24T20:41:24.984Z,64.11
2024-01-24T20:43:52.599Z,64.00
2024-01-24T20:46:19.506Z,63.88
2024-01-24T20:48:46.416Z,64.16
2024-01-24T20:51:13.328Z,64.54
2024-01-24T20:53:39.964Z,64.74
2024-01-24T20:56:07.100Z,64.99
2024-01-24T20:58:34.575Z,64.96
2024-01-24T21:01:02.390Z,65.30
2024-01-24T21:03:29.814Z,65.66
2024-01-24T21:05:57.042Z,66.20
2024-01-24T21:08:24.719Z,66.55
2024-01-24T21:10:55.974Z,66.70
2024-01-24T21:13:29.427Z,66.70
2024-01-24T21:15:56.517Z,67.02
2024-01-24T21:18:23.504Z,67.86
2024-01-24T21:20:50.882Z,67.61
2024-01-24T21:23:17.959Z,68.31
2024-01-24T21:25:44.649Z,68.33
2024-01-24T21:28:11.742Z,69.06
2024-01-24T21:30:38.419Z,69.70
2024-01-24T21:33:05.415Z,70.16
2024-01-24T21:35:32.160Z,70.23
2024-01-24T21:37:58.815Z,70.89
2024-01-24T21:40:25.704Z,71.23
2024-01-24T21:42:52.595Z,71.20
2024-01-24T21:45:19.394Z,71.67
2024-01-24T21:47:46.605Z,71.73
2024-01-24T21:50:13.818Z,71.87
2024-01-24T21:52:40.572Z,71.96
2024-01-24T21:55:07.934Z,71.96
2024-01-24T21:57:34.878Z,72.90
2024-01-24T22:00:01.909Z,72.53
2024-01-24T22:02:31.689Z,72.88
2024-01-24T22:04:58.319Z,73.00
2024-01-24T22:07:25.079Z,73.84
2024-01-24T22:09:53.423Z,73.82
2024-01-24T22:12:20.131Z,73.98
2024-01-24T22:14:46.763Z,74.41
2024-01-24T22:17:13.437Z,74.38
2024-01-24T22:19:40.213Z,74.63
2024-01-24T22:22:07.022Z,75.11
2024-01-24T22:24:33.902Z,74.72
2024-01-24T22:27:00.668Z,74.68
2024-01-24T22:29:27.616Z,74.64
2024-01-24T22:31:54.528Z,74.84
2024-01-24T22:34:21.881Z,74.54
2024-01-24T22:36:49.008Z,75.29
2024-01-24T22:39:16.351Z,75.11
2024-01-24T22:41:43.202Z,75.07
2024-01-24T22:44:10.990Z,75.36
2024-01-24T22:46:43.603Z,75.66
2024-01-24T22:49:11.460Z,75.52
2024-01-24T22:51:39.260Z,75.91
2024-01-24T22:54:07.092Z,75.75
2024-01-24T22:56:33.763Z,76.11
2024-01-24T22:59:00.442Z,75.63
2024-01-24T23:01:28.819Z,76.52
2024-01-24T23:03:55.678Z,75.79
2024-01-24T23:06:22.809Z,76.79
2024-01-24T23:08:49.518Z,76.30
2024-01-24T23:11:16.160Z,76.56
2024-01-24T23:13:42.835Z,77.04
2024-01-24T23:16:09.684Z,76.82
2024-01-24T23:18:36.806Z,76.92
2024-01-24T23:21:03.677Z,77.53
2024-01-24T23:23:30.379Z,76.74
2024-01-24T23:25:57.038Z,77.18
2024-01-24T23:28:23.885Z,77.44
2024-01-24T23:30:51.392Z,77.85
2024-01-24T23:33:18.578Z,79.18
2024-01-24T23:35:45.344Z,79.10
2024-01-24T23:38:12.075Z,78.56
2024-01-24T23:40:38.771Z,79.58
2024-01-24T23:43:05.674Z,80.13
2024-01-24T23:45:32.588Z,79.09
2024-01-24T23:47:59.511Z,79.22
2024-01-24T23:50:26.730Z,79.93
2024-01-24T23:52:58.263Z,80.17
2024-01-24T23:55:26.424Z,80.14
2024-01-24T23:57:54.835Z,80.66
